sensor_id;sensor_type;location;lat;lon;timestamp;P1;durP1;ratioP1;P2;durP2;ratioP2
46391;SDS011;32098;49.448;7.904;2022-08-21T00:00:40;3.90;;;2.70;;
46391;SDS011;32098;49.448;7.904;2022-08-21T00:03:10;5.10;;;2.65;;
46391;SDS011;32098;49.448;7.904;2022-08-21T00:05:39;3.65;;;2.92;;
46391;SDS011;32098;49.448;7.904;2022-08-21T00:08:11;5.30;;;3.07;;
46391;SDS011;32098;49.448;7.904;2022-08-21T00:10:38;4.68;;;3.10;;
46391;SDS011;32098;49.448;7.904;2022-08-21T00:13:06;3.33;;;2.80;;
46391;SDS011;32098;49.448;7.904;2022-08-21T00:15:34;5.18;;;3.17;;
46391;SDS011;32098;49.448;7.904;2022-08-21T00:18:02;5.55;;;2.83;;
46391;SDS011;32098;49.448;7.904;2022-08-21T00:20:30;5.95;;;2.83;;
46391;SDS011;32098;49.448;7.904;2022-08-21T00:22:57;4.87;;;3.23;;
46391;SDS011;32098;49.448;7.904;2022-08-21T00:25:24;5.57;;;3.25;;
46391;SDS011;32098;49.448;7.904;2022-08-21T00:27:51;5.43;;;3.13;;
46391;SDS011;32098;49.448;7.904;2022-08-21T00:30:19;4.90;;;3.03;;
46391;SDS011;32098;49.448;7.904;2022-08-21T00:32:48;3.80;;;3.08;;
46391;SDS011;32098;49.448;7.904;2022-08-21T00:35:17;6.03;;;3.80;;
46391;SDS011;32098;49.448;7.904;2022-08-21T00:37:44;4.60;;;3.10;;
46391;SDS011;32098;49.448;7.904;2022-08-21T00:40:13;5.07;;;3.42;;
46391;SDS011;32098;49.448;7.904;2022-08-21T00:42:42;5.10;;;3.20;;
46391;SDS011;32098;49.448;7.904;2022-08-21T00:45:18;4.15;;;3.60;;
46391;SDS011;32098;49.448;7.904;2022-08-21T00:47:45;6.93;;;4.10;;
46391;SDS011;32098;49.448;7.904;2022-08-21T00:50:12;3.87;;;3.27;;
46391;SDS011;32098;49.448;7.904;2022-08-21T00:52:47;3.97;;;3.07;;
46391;SDS011;32098;49.448;7.904;2022-08-21T00:55:17;4.47;;;3.43;;
46391;SDS011;32098;49.448;7.904;2022-08-21T00:57:48;6.00;;;3.60;;
46391;SDS011;32098;49.448;7.904;2022-08-21T01:00:21;4.17;;;3.40;;
46391;SDS011;32098;49.448;7.904;2022-08-21T01:02:51;5.83;;;3.50;;
46391;SDS011;32098;49.448;7.904;2022-08-21T01:05:17;6.53;;;3.30;;
46391;SDS011;32098;49.448;7.904;2022-08-21T01:07:44;3.43;;;3.07;;
46391;SDS011;32098;49.448;7.904;2022-08-21T01:10:11;4.23;;;3.30;;
46391;SDS011;32098;49.448;7.904;2022-08-21T01:12:50;5.00;;;3.40;;
46391;SDS011;32098;49.448;7.904;2022-08-21T01:15:19;5.55;;;3.95;;
46391;SDS011;32098;49.448;7.904;2022-08-21T01:17:47;4.37;;;3.43;;
46391;SDS011;32098;49.448;7.904;2022-08-21T01:20:15;7.20;;;3.53;;
46391;SDS011;32098;49.448;7.904;2022-08-21T01:22:42;5.68;;;3.78;;
46391;SDS011;32098;49.448;7.904;2022-08-21T01:25:10;5.40;;;3.70;;
46391;SDS011;32098;49.448;7.904;2022-08-21T01:27:38;5.13;;;3.37;;
46391;SDS011;32098;49.448;7.904;2022-08-21T01:30:10;4.50;;;3.80;;
46391;SDS011;32098;49.448;7.904;2022-08-21T01:32:42;4.47;;;3.08;;
46391;SDS011;32098;49.448;7.904;2022-08-21T01:35:09;6.93;;;3.60;;
46391;SDS011;32098;49.448;7.904;2022-08-21T01:37:37;4.83;;;3.30;;
46391;SDS011;32098;49.448;7.904;2022-08-21T01:40:05;5.57;;;3.40;;
46391;SDS011;32098;49.448;7.904;2022-08-21T01:42:32;6.57;;;4.00;;
46391;SDS011;32098;49.448;7.904;2022-08-21T01:44:59;6.50;;;3.90;;
46391;SDS011;32098;49.448;7.904;2022-08-21T01:47:26;3.97;;;3.33;;
46391;SDS011;32098;49.448;7.904;2022-08-21T01:49:53;5.53;;;3.73;;
46391;SDS011;32098;49.448;7.904;2022-08-21T01:52:19;4.37;;;3.70;;
46391;SDS011;32098;49.448;7.904;2022-08-21T01:54:46;7.07;;;4.27;;
46391;SDS011;32098;49.448;7.904;2022-08-21T01:57:20;4.53;;;3.83;;
46391;SDS011;32098;49.448;7.904;2022-08-21T01:59:51;6.90;;;4.33;;
46391;SDS011;32098;49.448;7.904;2022-08-21T02:02:19;5.43;;;3.90;;
46391;SDS011;32098;49.448;7.904;2022-08-21T02:04:45;6.10;;;3.73;;
46391;SDS011;32098;49.448;7.904;2022-08-21T02:07:12;4.93;;;3.63;;
46391;SDS011;32098;49.448;7.904;2022-08-21T02:09:38;5.30;;;3.53;;
46391;SDS011;32098;49.448;7.904;2022-08-21T02:12:09;4.97;;;3.70;;
46391;SDS011;32098;49.448;7.904;2022-08-21T02:14:36;5.87;;;3.73;;
46391;SDS011;32098;49.448;7.904;2022-08-21T02:17:03;5.37;;;3.73;;
46391;SDS011;32098;49.448;7.904;2022-08-21T02:23:23;4.60;;;3.23;;
46391;SDS011;32098;49.448;7.904;2022-08-21T02:25:53;4.47;;;3.53;;
46391;SDS011;32098;49.448;7.904;2022-08-21T02:28:23;5.27;;;3.50;;
46391;SDS011;32098;49.448;7.904;2022-08-21T02:30:51;6.73;;;4.17;;
46391;SDS011;32098;49.448;7.904;2022-08-21T02:33:18;4.53;;;3.67;;
46391;SDS011;32098;49.448;7.904;2022-08-21T02:35:45;6.83;;;3.60;;
46391;SDS011;32098;49.448;7.904;2022-08-21T02:38:15;4.07;;;3.43;;
46391;SDS011;32098;49.448;7.904;2022-08-21T02:40:47;6.57;;;3.90;;
46391;SDS011;32098;49.448;7.904;2022-08-21T02:43:17;4.70;;;3.50;;
46391;SDS011;32098;49.448;7.904;2022-08-21T02:45:45;6.60;;;4.13;;
46391;SDS011;32098;49.448;7.904;2022-08-21T02:48:13;5.77;;;3.80;;
46391;SDS011;32098;49.448;7.904;2022-08-21T02:50:43;6.93;;;4.33;;
46391;SDS011;32098;49.448;7.904;2022-08-21T02:53:14;7.93;;;4.10;;
46391;SDS011;32098;49.448;7.904;2022-08-21T02:55:46;5.30;;;3.63;;
46391;SDS011;32098;49.448;7.904;2022-08-21T02:58:15;6.10;;;4.00;;
46391;SDS011;32098;49.448;7.904;2022-08-21T03:00:46;5.40;;;3.87;;
46391;SDS011;32098;49.448;7.904;2022-08-21T03:03:12;5.20;;;3.80;;
46391;SDS011;32098;49.448;7.904;2022-08-21T03:05:41;5.03;;;3.50;;
46391;SDS011;32098;49.448;7.904;2022-08-21T03:08:09;5.53;;;4.27;;
46391;SDS011;32098;49.448;7.904;2022-08-21T03:10:38;4.20;;;3.80;;
46391;SDS011;32098;49.448;7.904;2022-08-21T03:13:06;5.03;;;4.10;;
46391;SDS011;32098;49.448;7.904;2022-08-21T03:15:33;6.67;;;3.80;;
46391;SDS011;32098;49.448;7.904;2022-08-21T03:18:00;4.43;;;3.73;;
46391;SDS011;32098;49.448;7.904;2022-08-21T03:20:27;7.17;;;3.90;;
46391;SDS011;32098;49.448;7.904;2022-08-21T03:22:54;4.93;;;3.53;;
46391;SDS011;32098;49.448;7.904;2022-08-21T03:25:23;5.20;;;3.90;;
46391;SDS011;32098;49.448;7.904;2022-08-21T03:28:06;5.57;;;3.97;;
46391;SDS011;32098;49.448;7.904;2022-08-21T03:30:38;6.37;;;4.20;;
46391;SDS011;32098;49.448;7.904;2022-08-21T03:33:06;5.53;;;3.70;;
46391;SDS011;32098;49.448;7.904;2022-08-21T03:35:32;7.07;;;4.03;;
46391;SDS011;32098;49.448;7.904;2022-08-21T03:37:59;6.40;;;3.57;;
46391;SDS011;32098;49.448;7.904;2022-08-21T03:40:25;7.60;;;4.20;;
46391;SDS011;32098;49.448;7.904;2022-08-21T03:42:52;6.63;;;3.90;;
46391;SDS011;32098;49.448;7.904;2022-08-21T03:45:19;6.27;;;4.43;;
46391;SDS011;32098;49.448;7.904;2022-08-21T03:47:53;4.30;;;3.70;;
46391;SDS011;32098;49.448;7.904;2022-08-21T03:50:22;5.90;;;3.90;;
46391;SDS011;32098;49.448;7.904;2022-08-21T03:52:50;7.57;;;4.10;;
46391;SDS011;32098;49.448;7.904;2022-08-21T03:55:16;6.87;;;4.20;;
46391;SDS011;32098;49.448;7.904;2022-08-21T03:57:44;4.53;;;3.77;;
46391;SDS011;32098;49.448;7.904;2022-08-21T04:00:11;5.77;;;3.80;;
46391;SDS011;32098;49.448;7.904;2022-08-21T04:02:39;5.53;;;3.90;;
46391;SDS011;32098;49.448;7.904;2022-08-21T04:05:06;5.80;;;4.63;;
46391;SDS011;32098;49.448;7.904;2022-08-21T04:07:33;7.83;;;4.50;;
46391;SDS011;32098;49.448;7.904;2022-08-21T04:10:00;5.77;;;4.07;;
46391;SDS011;32098;49.448;7.904;2022-08-21T04:12:26;6.27;;;3.70;;
46391;SDS011;32098;49.448;7.904;2022-08-21T04:14:53;6.37;;;4.50;;
46391;SDS011;32098;49.448;7.904;2022-08-21T04:17:19;6.53;;;4.00;;
46391;SDS011;32098;49.448;7.904;2022-08-21T04:19:46;5.73;;;4.27;;
46391;SDS011;32098;49.448;7.904;2022-08-21T04:22:18;6.00;;;4.50;;
46391;SDS011;32098;49.448;7.904;2022-08-21T04:24:45;5.87;;;4.43;;
46391;SDS011;32098;49.448;7.904;2022-08-21T04:27:11;5.50;;;4.27;;
46391;SDS011;32098;49.448;7.904;2022-08-21T04:29:38;5.87;;;4.20;;
46391;SDS011;32098;49.448;7.904;2022-08-21T04:32:05;7.37;;;4.20;;
46391;SDS011;32098;49.448;7.904;2022-08-21T04:34:32;7.47;;;4.20;;
46391;SDS011;32098;49.448;7.904;2022-08-21T04:36:59;5.57;;;4.10;;
46391;SDS011;32098;49.448;7.904;2022-08-21T04:39:25;4.43;;;3.90;;
46391;SDS011;32098;49.448;7.904;2022-08-21T04:41:55;6.40;;;4.20;;
46391;SDS011;32098;49.448;7.904;2022-08-21T04:44:21;6.80;;;4.53;;
46391;SDS011;32098;49.448;7.904;2022-08-21T04:46:48;5.63;;;4.00;;
46391;SDS011;32098;49.448;7.904;2022-08-21T04:49:14;7.00;;;4.37;;
46391;SDS011;32098;49.448;7.904;2022-08-21T04:51:41;8.97;;;4.60;;
46391;SDS011;32098;49.448;7.904;2022-08-21T04:54:12;6.97;;;4.77;;
46391;SDS011;32098;49.448;7.904;2022-08-21T04:56:52;5.87;;;4.13;;
46391;SDS011;32098;49.448;7.904;2022-08-21T04:59:32;5.70;;;4.47;;
46391;SDS011;32098;49.448;7.904;2022-08-21T05:02:04;6.50;;;4.43;;
46391;SDS011;32098;49.448;7.904;2022-08-21T05:04:32;8.07;;;4.63;;
46391;SDS011;32098;49.448;7.904;2022-08-21T05:07:04;6.00;;;4.77;;
46391;SDS011;32098;49.448;7.904;2022-08-21T05:09:33;5.30;;;4.30;;
46391;SDS011;32098;49.448;7.904;2022-08-21T05:12:01;7.53;;;5.17;;
46391;SDS011;32098;49.448;7.904;2022-08-21T05:14:28;8.03;;;4.70;;
46391;SDS011;32098;49.448;7.904;2022-08-21T05:16:55;8.50;;;4.73;;
46391;SDS011;32098;49.448;7.904;2022-08-21T05:19:21;6.53;;;4.83;;
46391;SDS011;32098;49.448;7.904;2022-08-21T05:21:49;6.30;;;4.43;;
46391;SDS011;32098;49.448;7.904;2022-08-21T05:24:16;9.00;;;4.30;;
46391;SDS011;32098;49.448;7.904;2022-08-21T05:26:44;7.00;;;4.97;;
46391;SDS011;32098;49.448;7.904;2022-08-21T05:29:13;8.03;;;4.60;;
46391;SDS011;32098;49.448;7.904;2022-08-21T05:31:41;7.37;;;4.57;;
46391;SDS011;32098;49.448;7.904;2022-08-21T05:34:08;6.73;;;4.87;;
46391;SDS011;32098;49.448;7.904;2022-08-21T05:36:35;6.77;;;4.67;;
46391;SDS011;32098;49.448;7.904;2022-08-21T05:39:02;8.33;;;5.03;;
46391;SDS011;32098;49.448;7.904;2022-08-21T05:41:29;7.37;;;4.00;;
46391;SDS011;32098;49.448;7.904;2022-08-21T05:43:59;10.23;;;4.57;;
46391;SDS011;32098;49.448;7.904;2022-08-21T05:46:25;6.33;;;4.13;;
46391;SDS011;32098;49.448;7.904;2022-08-21T05:48:52;7.13;;;4.23;;
46391;SDS011;32098;49.448;7.904;2022-08-21T05:51:18;7.47;;;4.13;;
46391;SDS011;32098;49.448;7.904;2022-08-21T05:53:45;5.20;;;4.20;;
46391;SDS011;32098;49.448;7.904;2022-08-21T05:56:13;8.37;;;4.23;;
46391;SDS011;32098;49.448;7.904;2022-08-21T05:58:39;7.90;;;4.20;;
46391;SDS011;32098;49.448;7.904;2022-08-21T06:01:06;5.13;;;3.67;;
46391;SDS011;32098;49.448;7.904;2022-08-21T06:03:34;4.93;;;3.47;;
46391;SDS011;32098;49.448;7.904;2022-08-21T06:06:03;7.00;;;3.93;;
46391;SDS011;32098;49.448;7.904;2022-08-21T06:08:30;6.22;;;3.72;;
46391;SDS011;32098;49.448;7.904;2022-08-21T06:10:58;6.13;;;3.75;;
46391;SDS011;32098;49.448;7.904;2022-08-21T06:13:26;5.40;;;3.45;;
46391;SDS011;32098;49.448;7.904;2022-08-21T06:16:03;6.78;;;4.05;;
46391;SDS011;32098;49.448;7.904;2022-08-21T06:18:32;5.45;;;3.80;;
46391;SDS011;32098;49.448;7.904;2022-08-21T06:20:59;3.90;;;3.50;;
46391;SDS011;32098;49.448;7.904;2022-08-21T06:23:26;4.22;;;3.60;;
46391;SDS011;32098;49.448;7.904;2022-08-21T06:25:58;5.10;;;3.60;;
46391;SDS011;32098;49.448;7.904;2022-08-21T06:28:25;4.97;;;3.55;;
46391;SDS011;32098;49.448;7.904;2022-08-21T06:30:51;5.40;;;3.22;;
46391;SDS011;32098;49.448;7.904;2022-08-21T06:33:18;5.18;;;3.20;;
46391;SDS011;32098;49.448;7.904;2022-08-21T06:35:45;5.30;;;3.55;;
46391;SDS011;32098;49.448;7.904;2022-08-21T06:38:11;3.67;;;3.13;;
46391;SDS011;32098;49.448;7.904;2022-08-21T06:40:38;5.35;;;3.33;;
46391;SDS011;32098;49.448;7.904;2022-08-21T06:43:12;7.55;;;3.33;;
46391;SDS011;32098;49.448;7.904;2022-08-21T06:45:41;6.53;;;3.30;;
46391;SDS011;32098;49.448;7.904;2022-08-21T06:48:08;5.78;;;3.28;;
46391;SDS011;32098;49.448;7.904;2022-08-21T06:50:34;6.00;;;3.40;;
46391;SDS011;32098;49.448;7.904;2022-08-21T06:53:05;7.78;;;3.38;;
46391;SDS011;32098;49.448;7.904;2022-08-21T06:55:34;7.53;;;3.22;;
46391;SDS011;32098;49.448;7.904;2022-08-21T06:58:00;5.30;;;3.28;;
46391;SDS011;32098;49.448;7.904;2022-08-21T07:00:27;3.90;;;2.80;;
46391;SDS011;32098;49.448;7.904;2022-08-21T07:02:53;4.97;;;3.33;;
46391;SDS011;32098;49.448;7.904;2022-08-21T07:05:20;4.68;;;3.25;;
46391;SDS011;32098;49.448;7.904;2022-08-21T07:07:47;8.65;;;3.22;;
46391;SDS011;32098;49.448;7.904;2022-08-21T07:10:14;5.60;;;2.92;;
46391;SDS011;32098;49.448;7.904;2022-08-21T07:12:48;5.03;;;2.97;;
46391;SDS011;32098;49.448;7.904;2022-08-21T07:15:26;5.65;;;3.13;;
46391;SDS011;32098;49.448;7.904;2022-08-21T07:17:55;4.70;;;2.78;;
46391;SDS011;32098;49.448;7.904;2022-08-21T07:20:23;5.22;;;3.20;;
46391;SDS011;32098;49.448;7.904;2022-08-21T07:22:49;6.13;;;2.85;;
46391;SDS011;32098;49.448;7.904;2022-08-21T07:25:16;4.85;;;2.65;;
46391;SDS011;32098;49.448;7.904;2022-08-21T07:27:43;5.35;;;2.70;;
46391;SDS011;32098;49.448;7.904;2022-08-21T07:30:09;5.57;;;3.08;;
46391;SDS011;32098;49.448;7.904;2022-08-21T07:32:36;7.35;;;2.97;;
46391;SDS011;32098;49.448;7.904;2022-08-21T07:35:03;5.43;;;2.88;;
46391;SDS011;32098;49.448;7.904;2022-08-21T07:37:29;4.55;;;2.90;;
46391;SDS011;32098;49.448;7.904;2022-08-21T07:39:56;4.97;;;2.80;;
46391;SDS011;32098;49.448;7.904;2022-08-21T07:42:23;6.20;;;3.28;;
46391;SDS011;32098;49.448;7.904;2022-08-21T07:44:50;4.20;;;2.78;;
46391;SDS011;32098;49.448;7.904;2022-08-21T07:47:21;8.43;;;3.35;;
46391;SDS011;32098;49.448;7.904;2022-08-21T07:50:09;7.28;;;3.08;;
46391;SDS011;32098;49.448;7.904;2022-08-21T07:52:39;4.82;;;2.92;;
46391;SDS011;32098;49.448;7.904;2022-08-21T07:55:08;6.00;;;2.90;;
46391;SDS011;32098;49.448;7.904;2022-08-21T07:57:37;5.10;;;2.67;;
46391;SDS011;32098;49.448;7.904;2022-08-21T08:00:04;7.07;;;3.30;;
46391;SDS011;32098;49.448;7.904;2022-08-21T08:02:37;5.55;;;2.92;;
46391;SDS011;32098;49.448;7.904;2022-08-21T08:05:05;5.50;;;2.78;;
46391;SDS011;32098;49.448;7.904;2022-08-21T08:07:33;11.60;;;3.60;;
46391;SDS011;32098;49.448;7.904;2022-08-21T08:10:00;6.63;;;3.15;;
46391;SDS011;32098;49.448;7.904;2022-08-21T08:12:28;5.05;;;2.83;;
46391;SDS011;32098;49.448;7.904;2022-08-21T08:14:56;6.70;;;3.10;;
46391;SDS011;32098;49.448;7.904;2022-08-21T08:17:24;4.80;;;2.80;;
46391;SDS011;32098;49.448;7.904;2022-08-21T08:19:54;5.13;;;2.38;;
46391;SDS011;32098;49.448;7.904;2022-08-21T08:22:22;5.32;;;2.67;;
46391;SDS011;32098;49.448;7.904;2022-08-21T08:24:53;5.57;;;2.70;;
46391;SDS011;32098;49.448;7.904;2022-08-21T08:27:20;4.45;;;2.70;;
46391;SDS011;32098;49.448;7.904;2022-08-21T08:29:47;7.00;;;2.88;;
46391;SDS011;32098;49.448;7.904;2022-08-21T08:32:14;8.18;;;2.55;;
46391;SDS011;32098;49.448;7.904;2022-08-21T08:34:41;8.27;;;2.40;;
46391;SDS011;32098;49.448;7.904;2022-08-21T08:37:08;7.72;;;2.72;;
46391;SDS011;32098;49.448;7.904;2022-08-21T08:39:35;6.68;;;2.72;;
46391;SDS011;32098;49.448;7.904;2022-08-21T08:45:10;5.22;;;2.33;;
46391;SDS011;32098;49.448;7.904;2022-08-21T08:47:40;3.63;;;2.30;;
46391;SDS011;32098;49.448;7.904;2022-08-21T08:50:12;6.75;;;2.30;;
46391;SDS011;32098;49.448;7.904;2022-08-21T08:52:52;6.35;;;2.42;;
46391;SDS011;32098;49.448;7.904;2022-08-21T08:55:26;6.88;;;2.67;;
46391;SDS011;32098;49.448;7.904;2022-08-21T08:57:58;6.50;;;2.40;;
46391;SDS011;32098;49.448;7.904;2022-08-21T09:00:24;8.30;;;2.60;;
46391;SDS011;32098;49.448;7.904;2022-08-21T09:02:52;7.40;;;2.78;;
46391;SDS011;32098;49.448;7.904;2022-08-21T09:05:26;5.78;;;2.80;;
46391;SDS011;32098;49.448;7.904;2022-08-21T09:13:25;5.57;;;2.80;;
46391;SDS011;32098;49.448;7.904;2022-08-21T09:19:13;5.63;;;2.15;;
46391;SDS011;32098;49.448;7.904;2022-08-21T09:21:54;7.78;;;2.70;;
46391;SDS011;32098;49.448;7.904;2022-08-21T09:24:37;4.60;;;2.80;;
46391;SDS011;32098;49.448;7.904;2022-08-21T09:27:17;4.10;;;2.30;;
46391;SDS011;32098;49.448;7.904;2022-08-21T09:29:47;3.78;;;2.35;;
46391;SDS011;32098;49.448;7.904;2022-08-21T09:32:19;5.90;;;3.10;;
46391;SDS011;32098;49.448;7.904;2022-08-21T09:35:07;3.47;;;2.30;;
46391;SDS011;32098;49.448;7.904;2022-08-21T09:37:44;3.65;;;2.05;;
46391;SDS011;32098;49.448;7.904;2022-08-21T09:40:28;4.90;;;2.22;;
46391;SDS011;32098;49.448;7.904;2022-08-21T09:43:00;6.72;;;2.63;;
46391;SDS011;32098;49.448;7.904;2022-08-21T09:45:40;7.00;;;2.75;;
46391;SDS011;32098;49.448;7.904;2022-08-21T09:50:44;4.35;;;2.05;;
46391;SDS011;32098;49.448;7.904;2022-08-21T09:53:19;5.57;;;2.50;;
46391;SDS011;32098;49.448;7.904;2022-08-21T09:55:51;7.53;;;2.67;;
46391;SDS011;32098;49.448;7.904;2022-08-21T09:58:50;3.92;;;2.28;;
46391;SDS011;32098;49.448;7.904;2022-08-21T10:01:19;8.35;;;2.15;;
46391;SDS011;32098;49.448;7.904;2022-08-21T10:03:48;4.00;;;2.03;;
46391;SDS011;32098;49.448;7.904;2022-08-21T10:06:27;4.43;;;2.33;;
46391;SDS011;32098;49.448;7.904;2022-08-21T10:09:06;5.25;;;2.25;;
46391;SDS011;32098;49.448;7.904;2022-08-21T10:12:06;3.25;;;2.05;;
46391;SDS011;32098;49.448;7.904;2022-08-21T10:14:58;4.38;;;2.20;;
46391;SDS011;32098;49.448;7.904;2022-08-21T10:17:59;5.75;;;2.30;;
46391;SDS011;32098;49.448;7.904;2022-08-21T10:20:51;6.72;;;1.80;;
46391;SDS011;32098;49.448;7.904;2022-08-21T10:23:37;4.00;;;2.22;;
46391;SDS011;32098;49.448;7.904;2022-08-21T10:26:07;7.15;;;2.17;;
46391;SDS011;32098;49.448;7.904;2022-08-21T10:28:41;4.22;;;2.22;;
46391;SDS011;32098;49.448;7.904;2022-08-21T10:31:14;3.63;;;1.67;;
46391;SDS011;32098;49.448;7.904;2022-08-21T10:34:04;3.53;;;1.90;;
46391;SDS011;32098;49.448;7.904;2022-08-21T10:36:33;3.78;;;1.83;;
46391;SDS011;32098;49.448;7.904;2022-08-21T10:47:48;3.67;;;1.92;;
46391;SDS011;32098;49.448;7.904;2022-08-21T10:50:26;4.05;;;1.70;;
46391;SDS011;32098;49.448;7.904;2022-08-21T10:53:11;3.00;;;1.48;;
46391;SDS011;32098;49.448;7.904;2022-08-21T11:01:51;4.68;;;1.80;;
46391;SDS011;32098;49.448;7.904;2022-08-21T11:04:49;4.50;;;1.73;;
46391;SDS011;32098;49.448;7.904;2022-08-21T11:07:30;3.97;;;1.90;;
46391;SDS011;32098;49.448;7.904;2022-08-21T11:10:05;3.95;;;1.55;;
46391;SDS011;32098;49.448;7.904;2022-08-21T11:12:47;4.40;;;2.22;;
46391;SDS011;32098;49.448;7.904;2022-08-21T11:15:38;3.55;;;1.60;;
46391;SDS011;32098;49.448;7.904;2022-08-21T11:18:24;4.95;;;2.05;;
46391;SDS011;32098;49.448;7.904;2022-08-21T11:21:02;3.03;;;2.05;;
46391;SDS011;32098;49.448;7.904;2022-08-21T11:29:09;3.90;;;1.95;;
46391;SDS011;32098;49.448;7.904;2022-08-21T11:31:52;4.35;;;2.03;;
46391;SDS011;32098;49.448;7.904;2022-08-21T11:34:46;2.40;;;1.75;;
46391;SDS011;32098;49.448;7.904;2022-08-21T11:37:41;3.72;;;1.75;;
46391;SDS011;32098;49.448;7.904;2022-08-21T11:43:35;3.83;;;1.83;;
46391;SDS011;32098;49.448;7.904;2022-08-21T11:48:47;3.92;;;2.05;;
46391;SDS011;32098;49.448;7.904;2022-08-21T11:51:19;4.57;;;2.05;;
46391;SDS011;32098;49.448;7.904;2022-08-21T11:53:56;3.38;;;1.90;;
46391;SDS011;32098;49.448;7.904;2022-08-21T11:59:06;4.47;;;1.92;;
46391;SDS011;32098;49.448;7.904;2022-08-21T12:01:39;4.05;;;1.90;;
46391;SDS011;32098;49.448;7.904;2022-08-21T12:07:08;5.90;;;1.92;;
46391;SDS011;32098;49.448;7.904;2022-08-21T12:09:36;5.28;;;2.42;;
46391;SDS011;32098;49.448;7.904;2022-08-21T12:17:09;4.13;;;2.20;;
46391;SDS011;32098;49.448;7.904;2022-08-21T12:20:16;4.32;;;2.58;;
46391;SDS011;32098;49.448;7.904;2022-08-21T12:22:49;4.72;;;2.40;;
46391;SDS011;32098;49.448;7.904;2022-08-21T12:25:20;3.67;;;2.22;;
46391;SDS011;32098;49.448;7.904;2022-08-21T12:27:49;3.53;;;2.40;;
46391;SDS011;32098;49.448;7.904;2022-08-21T12:30:38;4.15;;;2.50;;
46391;SDS011;32098;49.448;7.904;2022-08-21T12:33:20;3.88;;;2.28;;
46391;SDS011;32098;49.448;7.904;2022-08-21T12:36:07;4.80;;;2.55;;
46391;SDS011;32098;49.448;7.904;2022-08-21T12:38:45;4.13;;;2.33;;
46391;SDS011;32098;49.448;7.904;2022-08-21T12:41:28;5.57;;;2.60;;
46391;SDS011;32098;49.448;7.904;2022-08-21T12:44:00;2.58;;;2.20;;
46391;SDS011;32098;49.448;7.904;2022-08-21T12:46:36;4.60;;;2.13;;
46391;SDS011;32098;49.448;7.904;2022-08-21T12:49:17;5.32;;;2.30;;
46391;SDS011;32098;49.448;7.904;2022-08-21T12:51:56;4.90;;;2.17;;
46391;SDS011;32098;49.448;7.904;2022-08-21T12:54:28;5.28;;;2.45;;
46391;SDS011;32098;49.448;7.904;2022-08-21T12:57:01;4.28;;;2.40;;
46391;SDS011;32098;49.448;7.904;2022-08-21T12:59:30;5.72;;;2.55;;
46391;SDS011;32098;49.448;7.904;2022-08-21T13:01:58;5.68;;;2.40;;
46391;SDS011;32098;49.448;7.904;2022-08-21T13:04:39;3.65;;;2.47;;
46391;SDS011;32098;49.448;7.904;2022-08-21T13:07:08;3.80;;;2.00;;
46391;SDS011;32098;49.448;7.904;2022-08-21T13:09:47;4.63;;;2.40;;
46391;SDS011;32098;49.448;7.904;2022-08-21T13:12:17;3.78;;;2.22;;
46391;SDS011;32098;49.448;7.904;2022-08-21T13:14:46;3.70;;;2.20;;
46391;SDS011;32098;49.448;7.904;2022-08-21T13:17:13;5.95;;;2.40;;
46391;SDS011;32098;49.448;7.904;2022-08-21T13:19:58;5.22;;;2.50;;
46391;SDS011;32098;49.448;7.904;2022-08-21T13:22:27;3.65;;;2.20;;
46391;SDS011;32098;49.448;7.904;2022-08-21T13:25:01;4.93;;;2.40;;
46391;SDS011;32098;49.448;7.904;2022-08-21T13:27:32;6.32;;;2.70;;
46391;SDS011;32098;49.448;7.904;2022-08-21T13:30:09;3.88;;;2.53;;
46391;SDS011;32098;49.448;7.904;2022-08-21T13:32:47;4.13;;;2.30;;
46391;SDS011;32098;49.448;7.904;2022-08-21T13:35:19;3.72;;;2.13;;
46391;SDS011;32098;49.448;7.904;2022-08-21T13:37:48;5.10;;;2.70;;
46391;SDS011;32098;49.448;7.904;2022-08-21T13:40:25;4.85;;;2.08;;
46391;SDS011;32098;49.448;7.904;2022-08-21T13:42:56;3.50;;;2.30;;
46391;SDS011;32098;49.448;7.904;2022-08-21T13:45:25;5.05;;;2.38;;
46391;SDS011;32098;49.448;7.904;2022-08-21T13:47:57;4.75;;;2.17;;
46391;SDS011;32098;49.448;7.904;2022-08-21T13:50:32;2.65;;;1.80;;
46391;SDS011;32098;49.448;7.904;2022-08-21T13:53:05;6.75;;;2.75;;
46391;SDS011;32098;49.448;7.904;2022-08-21T13:55:34;3.70;;;2.00;;
46391;SDS011;32098;49.448;7.904;2022-08-21T13:58:03;4.55;;;2.42;;
46391;SDS011;32098;49.448;7.904;2022-08-21T14:00:32;4.38;;;2.28;;
46391;SDS011;32098;49.448;7.904;2022-08-21T14:03:06;3.83;;;2.55;;
46391;SDS011;32098;49.448;7.904;2022-08-21T14:05:36;2.75;;;1.92;;
46391;SDS011;32098;49.448;7.904;2022-08-21T14:08:13;3.42;;;2.30;;
46391;SDS011;32098;49.448;7.904;2022-08-21T14:10:55;4.78;;;2.20;;
46391;SDS011;32098;49.448;7.904;2022-08-21T14:16:18;5.47;;;2.22;;
46391;SDS011;32098;49.448;7.904;2022-08-21T14:19:10;5.90;;;2.55;;
46391;SDS011;32098;49.448;7.904;2022-08-21T14:21:48;3.92;;;2.28;;
46391;SDS011;32098;49.448;7.904;2022-08-21T14:26:49;3.67;;;2.38;;
46391;SDS011;32098;49.448;7.904;2022-08-21T14:29:25;3.47;;;2.28;;
46391;SDS011;32098;49.448;7.904;2022-08-21T14:32:00;4.63;;;2.28;;
46391;SDS011;32098;49.448;7.904;2022-08-21T14:34:50;3.25;;;2.20;;
46391;SDS011;32098;49.448;7.904;2022-08-21T14:37:17;4.97;;;2.35;;
46391;SDS011;32098;49.448;7.904;2022-08-21T14:39:43;3.60;;;2.22;;
46391;SDS011;32098;49.448;7.904;2022-08-21T14:42:11;3.63;;;2.50;;
46391;SDS011;32098;49.448;7.904;2022-08-21T14:44:39;4.53;;;2.28;;
46391;SDS011;32098;49.448;7.904;2022-08-21T14:47:05;3.65;;;2.03;;
46391;SDS011;32098;49.448;7.904;2022-08-21T14:49:32;6.63;;;2.28;;
46391;SDS011;32098;49.448;7.904;2022-08-21T14:51:58;5.05;;;2.42;;
46391;SDS011;32098;49.448;7.904;2022-08-21T14:54:25;3.15;;;2.30;;
46391;SDS011;32098;49.448;7.904;2022-08-21T14:57:02;3.75;;;2.28;;
46391;SDS011;32098;49.448;7.904;2022-08-21T14:59:31;4.80;;;2.38;;
46391;SDS011;32098;49.448;7.904;2022-08-21T15:01:59;3.45;;;2.17;;
46391;SDS011;32098;49.448;7.904;2022-08-21T15:04:26;2.90;;;2.08;;
46391;SDS011;32098;49.448;7.904;2022-08-21T15:06:53;5.85;;;2.10;;
46391;SDS011;32098;49.448;7.904;2022-08-21T15:09:19;4.10;;;2.60;;
46391;SDS011;32098;49.448;7.904;2022-08-21T15:11:46;4.05;;;2.40;;
46391;SDS011;32098;49.448;7.904;2022-08-21T15:14:15;3.28;;;2.13;;
46391;SDS011;32098;49.448;7.904;2022-08-21T15:16:46;5.95;;;2.35;;
46391;SDS011;32098;49.448;7.904;2022-08-21T15:19:14;5.93;;;2.15;;
46391;SDS011;32098;49.448;7.904;2022-08-21T15:21:40;2.85;;;2.00;;
46391;SDS011;32098;49.448;7.904;2022-08-21T15:24:07;3.60;;;2.20;;
46391;SDS011;32098;49.448;7.904;2022-08-21T15:26:34;4.20;;;2.13;;
46391;SDS011;32098;49.448;7.904;2022-08-21T15:29:02;3.65;;;2.00;;
46391;SDS011;32098;49.448;7.904;2022-08-21T15:31:32;3.25;;;2.00;;
46391;SDS011;32098;49.448;7.904;2022-08-21T15:33:59;3.65;;;2.10;;
46391;SDS011;32098;49.448;7.904;2022-08-21T15:36:25;4.45;;;2.25;;
46391;SDS011;32098;49.448;7.904;2022-08-21T15:38:52;3.30;;;2.10;;
46391;SDS011;32098;49.448;7.904;2022-08-21T15:41:18;4.65;;;2.20;;
46391;SDS011;32098;49.448;7.904;2022-08-21T15:43:46;3.85;;;2.47;;
46391;SDS011;32098;49.448;7.904;2022-08-21T15:46:16;4.35;;;1.95;;
46391;SDS011;32098;49.448;7.904;2022-08-21T15:48:44;4.07;;;2.10;;
46391;SDS011;32098;49.448;7.904;2022-08-21T15:51:12;3.55;;;2.20;;
46391;SDS011;32098;49.448;7.904;2022-08-21T15:53:40;4.45;;;2.30;;
46391;SDS011;32098;49.448;7.904;2022-08-21T15:56:11;4.03;;;2.50;;
46391;SDS011;32098;49.448;7.904;2022-08-21T15:58:46;4.20;;;2.47;;
46391;SDS011;32098;49.448;7.904;2022-08-21T16:01:12;4.15;;;2.72;;
46391;SDS011;32098;49.448;7.904;2022-08-21T16:03:39;2.90;;;2.05;;
46391;SDS011;32098;49.448;7.904;2022-08-21T16:06:05;3.88;;;2.35;;
46391;SDS011;32098;49.448;7.904;2022-08-21T16:08:34;5.22;;;2.50;;
46391;SDS011;32098;49.448;7.904;2022-08-21T16:11:01;3.83;;;2.33;;